sensor_id;sensor_type;location;lat;lon;timestamp;pressure;altitude;pressure_sealevel;temperature;humidity
70434;BME280;57876;47.792;12.960;2023-09-07T00:00:29;97153.88;;;18.58;65.64
70434;BME280;57876;47.792;12.960;2023-09-07T00:02:56;97150.66;;;18.56;65.85
70434;BME280;57876;47.792;12.960;2023-09-07T00:05:21;97147.47;;;18.54;65.71
70434;BME280;57876;47.792;12.960;2023-09-07T00:07:47;97151.00;;;18.55;66.01
70434;BME280;57876;47.792;12.960;2023-09-07T00:10:14;97152.28;;;18.57;65.74
70434;BME280;57876;47.792;12.960;2023-09-07T00:12:42;97155.34;;;18.56;65.79
70434;BME280;57876;47.792;12.960;2023-09-07T00:15:16;97151.13;;;18.58;65.64
70434;BME280;57876;47.792;12.960;2023-09-07T00:17:43;97153.41;;;18.56;65.63
70434;BME280;57876;47.792;12.960;2023-09-07T00:20:10;97158.56;;;18.58;65.73
70434;BME280;57876;47.792;12.960;2023-09-07T00:22:35;97144.88;;;18.58;65.72
70434;BME280;57876;47.792;12.960;2023-09-07T00:24:59;97149.53;;;18.57;65.83
70434;BME280;57876;47.792;12.960;2023-09-07T00:27:24;97146.81;;;18.57;65.83
70434;BME280;57876;47.792;12.960;2023-09-07T00:29:48;97146.81;;;18.57;65.80
70434;BME280;57876;47.792;12.960;2023-09-07T00:32:13;97142.78;;;18.55;65.75
70434;BME280;57876;47.792;12.960;2023-09-07T00:34:37;97150.03;;;18.59;65.94
70434;BME280;57876;47.792;12.960;2023-09-07T00:37:02;97136.16;;;18.56;65.55
70434;BME280;57876;47.792;12.960;2023-09-07T00:39:27;97136.97;;;18.56;65.64
70434;BME280;57876;47.792;12.960;2023-09-07T00:41:54;97135.38;;;18.55;65.74
70434;BME280;57876;47.792;12.960;2023-09-07T00:44:19;97134.22;;;18.56;65.84
70434;BME280;57876;47.792;12.960;2023-09-07T00:46:44;97141.63;;;18.56;65.75
70434;BME280;57876;47.792;12.960;2023-09-07T00:49:14;97127.94;;;18.56;65.69
70434;BME280;57876;47.792;12.960;2023-09-07T00:51:39;97141.63;;;18.56;65.78
70434;BME280;57876;47.792;12.960;2023-09-07T00:54:04;97136.50;;;18.54;65.74
70434;BME280;57876;47.792;12.960;2023-09-07T00:56:31;97136.50;;;18.54;65.77
70434;BME280;57876;47.792;12.960;2023-09-07T00:58:56;97147.59;;;18.58;65.76
70434;BME280;57876;47.792;12.960;2023-09-07T01:01:23;97146.81;;;18.57;65.75
70434;BME280;57876;47.792;12.960;2023-09-07T01:03:47;97141.31;;;18.57;66.00
70434;BME280;57876;47.792;12.960;2023-09-07T01:06:15;97139.38;;;18.58;65.65
70434;BME280;57876;47.792;12.960;2023-09-07T01:08:47;97128.75;;;18.56;65.66
70434;BME280;57876;47.792;12.960;2023-09-07T01:11:16;97130.38;;;18.57;65.74
70434;BME280;57876;47.792;12.960;2023-09-07T01:13:42;97135.03;;;18.57;65.73
70434;BME280;57876;47.792;12.960;2023-09-07T01:16:10;97129.56;;;18.57;65.81
70434;BME280;57876;47.792;12.960;2023-09-07T01:18:41;97125.19;;;18.56;65.83
70434;BME280;57876;47.792;12.960;2023-09-07T01:21:11;97131.81;;;18.55;65.73
70434;BME280;57876;47.792;12.960;2023-09-07T01:23:36;97122.81;;;18.54;65.83
70434;BME280;57876;47.792;12.960;2023-09-07T01:26:02;97120.88;;;18.55;65.86
70434;BME280;57876;47.792;12.960;2023-09-07T01:28:29;97126.00;;;18.56;65.74
70434;BME280;57876;47.792;12.960;2023-09-07T01:30:53;97125.56;;;18.54;65.82
70434;BME280;57876;47.792;12.960;2023-09-07T01:33:18;97134.22;;;18.56;65.75
70434;BME280;57876;47.792;12.960;2023-09-07T01:35:43;97133.44;;;18.56;65.67
70434;BME280;57876;47.792;12.960;2023-09-07T01:38:07;97138.09;;;18.55;65.78
70434;BME280;57876;47.792;12.960;2023-09-07T01:40:35;97139.69;;;18.56;65.68
70434;BME280;57876;47.792;12.960;2023-09-07T01:43:00;97133.78;;;18.54;65.68
70434;BME280;57876;47.792;12.960;2023-09-07T01:45:24;97133.78;;;18.54;65.84
70434;BME280;57876;47.792;12.960;2023-09-07T01:47:49;97135.84;;;18.57;65.50
70434;BME280;57876;47.792;12.960;2023-09-07T01:50:13;97131.81;;;18.55;65.74
70434;BME280;57876;47.792;12.960;2023-09-07T01:52:46;97120.06;;;18.54;65.74
70434;BME280;57876;47.792;12.960;2023-09-07T01:55:15;97134.56;;;18.55;65.77
70434;BME280;57876;47.792;12.960;2023-09-07T01:57:39;97125.69;;;18.58;65.60
70434;BME280;57876;47.792;12.960;2023-09-07T02:00:04;97128.75;;;18.56;65.83
70434;BME280;57876;47.792;12.960;2023-09-07T02:02:29;97127.16;;;18.55;65.79
70434;BME280;57876;47.792;12.960;2023-09-07T02:04:56;97134.56;;;18.55;65.62
70434;BME280;57876;47.792;12.960;2023-09-07T02:07:23;97131.03;;;18.54;65.71
70434;BME280;57876;47.792;12.960;2023-09-07T02:09:47;97141.63;;;18.56;65.69
70434;BME280;57876;47.792;12.960;2023-09-07T02:12:12;97139.25;;;18.54;65.85
70434;BME280;57876;47.792;12.960;2023-09-07T02:14:36;97141.19;;;18.54;65.83
70434;BME280;57876;47.792;12.960;2023-09-07T02:17:01;97140.84;;;18.55;65.68
70434;BME280;57876;47.792;12.960;2023-09-07T02:19:25;97135.72;;;18.54;65.92
70434;BME280;57876;47.792;12.960;2023-09-07T02:21:50;97144.38;;;18.56;65.78
70434;BME280;57876;47.792;12.960;2023-09-07T02:24:16;97138.44;;;18.54;65.78
70434;BME280;57876;47.792;12.960;2023-09-07T02:26:50;97134.09;;;18.53;65.50
70434;BME280;57876;47.792;12.960;2023-09-07T02:29:18;97138.91;;;18.56;65.73
70434;BME280;57876;47.792;12.960;2023-09-07T02:31:50;97142.00;;;18.54;65.94
70434;BME280;57876;47.792;12.960;2023-09-07T02:34:17;97139.69;;;18.56;65.68
70434;BME280;57876;47.792;12.960;2023-09-07T02:36:43;97135.72;;;18.54;65.45
70434;BME280;57876;47.792;12.960;2023-09-07T02:39:08;97139.25;;;18.54;65.65
70434;BME280;57876;47.792;12.960;2023-09-07T02:41:35;97137.63;;;18.53;65.88
70434;BME280;57876;47.792;12.960;2023-09-07T02:44:00;97137.31;;;18.55;65.69
70434;BME280;57876;47.792;12.960;2023-09-07T02:46:24;97139.25;;;18.54;65.79
70434;BME280;57876;47.792;12.960;2023-09-07T02:48:51;97137.97;;;18.52;65.78
70434;BME280;57876;47.792;12.960;2023-09-07T02:51:18;97141.50;;;18.52;65.73
70434;BME280;57876;47.792;12.960;2023-09-07T02:53:43;97150.19;;;18.54;65.75
70434;BME280;57876;47.792;12.960;2023-09-07T02:56:07;97140.34;;;18.53;65.64
70434;BME280;57876;47.792;12.960;2023-09-07T02:58:34;97152.16;;;18.54;65.80
70434;BME280;57876;47.792;12.960;2023-09-07T03:01:05;97145.84;;;18.53;65.73
70434;BME280;57876;47.792;12.960;2023-09-07T03:06:50;97150.53;;;18.53;65.66
70434;BME280;57876;47.792;12.960;2023-09-07T03:09:17;97145.53;;;18.55;65.75
70434;BME280;57876;47.792;12.960;2023-09-07T03:11:44;97155.19;;;18.52;65.63
70434;BME280;57876;47.792;12.960;2023-09-07T03:14:13;97154.41;;;18.52;65.72
70434;BME280;57876;47.792;12.960;2023-09-07T03:16:38;97161.16;;;18.54;65.61
70434;BME280;57876;47.792;12.960;2023-09-07T03:19:05;97156.00;;;18.53;65.81
70434;BME280;57876;47.792;12.960;2023-09-07T03:21:29;97155.69;;;18.54;65.63
70434;BME280;57876;47.792;12.960;2023-09-07T03:23:57;97154.06;;;18.53;66.04
70434;BME280;57876;47.792;12.960;2023-09-07T03:26:22;97159.09;;;18.51;65.75
70434;BME280;57876;47.792;12.960;2023-09-07T03:28:48;97165.50;;;18.55;65.59
70434;BME280;57876;47.792;12.960;2023-09-07T03:31:15;97160.69;;;18.52;65.78
70434;BME280;57876;47.792;12.960;2023-09-07T03:33:39;97165.00;;;18.53;65.72
70434;BME280;57876;47.792;12.960;2023-09-07T03:36:13;97165.84;;;18.54;65.83
70434;BME280;57876;47.792;12.960;2023-09-07T03:38:42;97155.69;;;18.54;65.83
70434;BME280;57876;47.792;12.960;2023-09-07T03:41:09;97152.16;;;18.54;65.67
70434;BME280;57876;47.792;12.960;2023-09-07T03:43:44;97156.78;;;18.53;65.64
70434;BME280;57876;47.792;12.960;2023-09-07T03:46:09;97148.91;;;18.52;65.81
70434;BME280;57876;47.792;12.960;2023-09-07T03:48:36;97146.97;;;18.52;65.73
70434;BME280;57876;47.792;12.960;2023-09-07T03:51:00;97152.16;;;18.54;65.72
70434;BME280;57876;47.792;12.960;2023-09-07T03:53:25;97142.00;;;18.54;65.68
70434;BME280;57876;47.792;12.960;2023-09-07T03:55:50;97145.03;;;18.53;66.03
70434;BME280;57876;47.792;12.960;2023-09-07T03:58:14;97149.72;;;18.52;65.58
70434;BME280;57876;47.792;12.960;2023-09-07T04:00:46;97144.25;;;18.52;65.69
70434;BME280;57876;47.792;12.960;2023-09-07T04:03:18;97142.66;;;18.51;65.62
70434;BME280;57876;47.792;12.960;2023-09-07T04:05:42;97144.25;;;18.52;65.79
70434;BME280;57876;47.792;12.960;2023-09-07T04:08:09;97147.47;;;18.54;65.63
70434;BME280;57876;47.792;12.960;2023-09-07T04:10:39;97148.56;;;18.53;65.68
70434;BME280;57876;47.792;12.960;2023-09-07T04:13:06;97141.03;;;18.50;65.75
70434;BME280;57876;47.792;12.960;2023-09-07T04:16:15;97142.66;;;18.51;65.64
70434;BME280;57876;47.792;12.960;2023-09-07T04:18:39;97148.91;;;18.52;65.67
70434;BME280;57876;47.792;12.960;2023-09-07T04:21:17;97147.28;;;18.51;65.45
70434;BME280;57876;47.792;12.960;2023-09-07T04:23:42;97155.19;;;18.52;65.75
70434;BME280;57876;47.792;12.960;2023-09-07T04:26:10;97157.13;;;18.52;65.94
70434;BME280;57876;47.792;12.960;2023-09-07T04:28:35;97154.72;;;18.50;65.74
70434;BME280;57876;47.792;12.960;2023-09-07T04:31:01;97153.59;;;18.51;65.54
70434;BME280;57876;47.792;12.960;2023-09-07T04:33:25;97159.88;;;18.52;65.62
70434;BME280;57876;47.792;12.960;2023-09-07T04:36:10;97160.69;;;18.52;65.68
70434;BME280;57876;47.792;12.960;2023-09-07T04:38:35;97156.34;;;18.51;66.02
70434;BME280;57876;47.792;12.960;2023-09-07T04:41:07;97159.88;;;18.52;65.70
70434;BME280;57876;47.792;12.960;2023-09-07T04:43:34;97155.84;;;18.49;65.71
70434;BME280;57876;47.792;12.960;2023-09-07T04:46:38;97169.22;;;18.51;65.63
70434;BME280;57876;47.792;12.960;2023-09-07T04:49:03;97165.34;;;18.52;65.85
70434;BME280;57876;47.792;12.960;2023-09-07T04:51:27;97176.81;;;18.54;65.66
70434;BME280;57876;47.792;12.960;2023-09-07T04:53:52;97169.69;;;18.53;65.70
70434;BME280;57876;47.792;12.960;2023-09-07T04:56:16;97170.03;;;18.51;65.84
70434;BME280;57876;47.792;12.960;2023-09-07T04:58:43;97172.44;;;18.53;65.72
70434;BME280;57876;47.792;12.960;2023-09-07T05:01:10;97171.63;;;18.52;65.62
70434;BME280;57876;47.792;12.960;2023-09-07T05:03:35;97177.13;;;18.52;65.80
70434;BME280;57876;47.792;12.960;2023-09-07T05:06:00;97178.56;;;18.49;65.87
70434;BME280;57876;47.792;12.960;2023-09-07T05:08:27;97182.91;;;18.51;65.79
70434;BME280;57876;47.792;12.960;2023-09-07T05:10:56;97179.38;;;18.50;65.80
70434;BME280;57876;47.792;12.960;2023-09-07T05:13:26;97191.13;;;18.51;65.61
70434;BME280;57876;47.792;12.960;2023-09-07T05:15:54;97180.50;;;18.49;65.67
70434;BME280;57876;47.792;12.960;2023-09-07T05:18:20;97188.72;;;18.49;65.72
70434;BME280;57876;47.792;12.960;2023-09-07T05:20:49;97186.13;;;18.53;65.73
70434;BME280;57876;47.792;12.960;2023-09-07T05:27:13;97204.81;;;18.51;65.85
70434;BME280;57876;47.792;12.960;2023-09-07T05:29:53;97201.28;;;18.50;65.54
70434;BME280;57876;47.792;12.960;2023-09-07T05:32:45;97199.69;;;18.49;65.82
70434;BME280;57876;47.792;12.960;2023-09-07T05:35:09;97213.38;;;18.49;65.76
70434;BME280;57876;47.792;12.960;2023-09-07T05:40:59;97207.56;;;18.51;65.79
70434;BME280;57876;47.792;12.960;2023-09-07T05:43:23;97210.28;;;18.51;65.71
70434;BME280;57876;47.792;12.960;2023-09-07T05:45:48;97202.41;;;18.49;65.60
70434;BME280;57876;47.792;12.960;2023-09-07T05:48:15;97206.75;;;18.50;65.70
70434;BME280;57876;47.792;12.960;2023-09-07T05:50:50;97205.16;;;18.49;65.67
70434;BME280;57876;47.792;12.960;2023-09-07T05:53:14;97206.75;;;18.50;65.89
70434;BME280;57876;47.792;12.960;2023-09-07T05:55:39;97211.94;;;18.52;65.61
70434;BME280;57876;47.792;12.960;2023-09-07T05:58:09;97208.38;;;18.51;65.67
70434;BME280;57876;47.792;12.960;2023-09-07T06:00:36;97208.69;;;18.49;65.61
70434;BME280;57876;47.792;12.960;2023-09-07T06:03:03;97206.75;;;18.50;65.62
70434;BME280;57876;47.792;12.960;2023-09-07T06:05:30;97204.50;;;18.52;65.68
70434;BME280;57876;47.792;12.960;2023-09-07T06:07:55;97202.06;;;18.51;65.85
70434;BME280;57876;47.792;12.960;2023-09-07T06:10:19;97210.78;;;18.53;65.59
70434;BME280;57876;47.792;12.960;2023-09-07T06:12:48;97216.25;;;18.53;65.80
70434;BME280;57876;47.792;12.960;2023-09-07T06:15:13;97208.38;;;18.51;65.63
70434;BME280;57876;47.792;12.960;2023-09-07T06:17:40;97211.44;;;18.49;65.71
70434;BME280;57876;47.792;12.960;2023-09-07T06:20:05;97209.19;;;18.52;65.71
70434;BME280;57876;47.792;12.960;2023-09-07T06:22:30;97205.16;;;18.49;65.93
70434;BME280;57876;47.792;12.960;2023-09-07T06:24:55;97208.38;;;18.51;65.84
70434;BME280;57876;47.792;12.960;2023-09-07T06:27:19;97209.97;;;18.52;65.62
70434;BME280;57876;47.792;12.960;2023-09-07T06:29:44;97209.19;;;18.52;65.80
70434;BME280;57876;47.792;12.960;2023-09-07T06:32:08;97215.47;;;18.52;65.59
70434;BME280;57876;47.792;12.960;2023-09-07T06:37:23;97220.44;;;18.50;65.67
70434;BME280;57876;47.792;12.960;2023-09-07T06:39:48;97227.22;;;18.53;65.78
70434;BME280;57876;47.792;12.960;2023-09-07T06:42:13;97229.16;;;18.52;65.78
70434;BME280;57876;47.792;12.960;2023-09-07T06:44:39;97228.66;;;18.50;65.70
70434;BME280;57876;47.792;12.960;2023-09-07T06:47:12;97230.31;;;18.51;65.69
70434;BME280;57876;47.792;12.960;2023-09-07T06:53:03;97237.38;;;18.52;65.42
70434;BME280;57876;47.792;12.960;2023-09-07T06:58:23;97240.59;;;18.54;65.63
70434;BME280;57876;47.792;12.960;2023-09-07T07:00:47;97248.03;;;18.54;65.76
70434;BME280;57876;47.792;12.960;2023-09-07T07:03:12;97238.97;;;18.53;65.68
70434;BME280;57876;47.792;12.960;2023-09-07T07:05:39;97246.72;;;18.51;65.71
70434;BME280;57876;47.792;12.960;2023-09-07T07:08:04;97243.16;;;18.51;65.56
70434;BME280;57876;47.792;12.960;2023-09-07T07:10:28;97252.22;;;18.51;65.64
70434;BME280;57876;47.792;12.960;2023-09-07T07:12:55;97256.56;;;18.52;65.62
70434;BME280;57876;47.792;12.960;2023-09-07T07:15:19;97244.00;;;18.51;65.96
70434;BME280;57876;47.792;12.960;2023-09-07T07:17:44;97242.38;;;18.50;65.59
70434;BME280;57876;47.792;12.960;2023-09-07T07:20:09;97244.00;;;18.51;65.61
70434;BME280;57876;47.792;12.960;2023-09-07T07:22:33;97242.38;;;18.50;65.52
70434;BME280;57876;47.792;12.960;2023-09-07T07:25:02;97249.13;;;18.53;65.68
70434;BME280;57876;47.792;12.960;2023-09-07T07:27:29;97236.88;;;18.50;65.68
70434;BME280;57876;47.792;12.960;2023-09-07T07:29:54;97239.63;;;18.50;65.68
70434;BME280;57876;47.792;12.960;2023-09-07T07:32:19;97242.84;;;18.52;65.88
70434;BME280;57876;47.792;12.960;2023-09-07T07:34:43;97237.38;;;18.52;65.63
70434;BME280;57876;47.792;12.960;2023-09-07T07:37:08;97242.84;;;18.52;65.61
70434;BME280;57876;47.792;12.960;2023-09-07T07:39:32;97238.97;;;18.53;65.61
70434;BME280;57876;47.792;12.960;2023-09-07T07:41:57;97240.44;;;18.51;65.73
70434;BME280;57876;47.792;12.960;2023-09-07T07:44:22;97238.97;;;18.53;65.76
70434;BME280;57876;47.792;12.960;2023-09-07T07:46:46;97238.97;;;18.53;65.67
70434;BME280;57876;47.792;12.960;2023-09-07T07:49:34;97238.19;;;18.53;65.67
70434;BME280;57876;47.792;12.960;2023-09-07T07:52:18;97239.81;;;18.54;65.68
70434;BME280;57876;47.792;12.960;2023-09-07T07:54:57;97237.38;;;18.52;65.70
70434;BME280;57876;47.792;12.960;2023-09-07T07:57:32;97226.72;;;18.51;65.50
70434;BME280;57876;47.792;12.960;2023-09-07T07:59:56;97234.31;;;18.54;65.76
70434;BME280;57876;47.792;12.960;2023-09-07T08:02:21;97235.91;;;18.55;65.80
70434;BME280;57876;47.792;12.960;2023-09-07T08:04:45;97233.03;;;18.51;65.66
70434;BME280;57876;47.792;12.960;2023-09-07T08:07:10;97228.84;;;18.54;65.80
70434;BME280;57876;47.792;12.960;2023-09-07T08:09:36;97229.97;;;18.53;65.84
70434;BME280;57876;47.792;12.960;2023-09-07T08:12:02;97231.09;;;18.52;65.68
70434;BME280;57876;47.792;12.960;2023-09-07T08:14:26;97230.44;;;18.55;65.71
70434;BME280;57876;47.792;12.960;2023-09-07T08:17:04;97233.03;;;18.51;65.69
70434;BME280;57876;47.792;12.960;2023-09-07T08:19:28;97226.09;;;18.54;65.63
70434;BME280;57876;47.792;12.960;2023-09-07T08:22:02;97223.19;;;18.50;65.61
70434;BME280;57876;47.792;12.960;2023-09-07T08:24:27;97221.25;;;18.51;65.50
70434;BME280;57876;47.792;12.960;2023-09-07T08:26:52;97225.28;;;18.53;65.60
70434;BME280;57876;47.792;12.960;2023-09-07T08:29:21;97222.53;;;18.53;65.51
70434;BME280;57876;47.792;12.960;2023-09-07T08:31:50;97221.75;;;18.53;65.71
70434;BME280;57876;47.792;12.960;2023-09-07T08:34:16;97226.09;;;18.54;65.72
70434;BME280;57876;47.792;12.960;2023-09-07T08:36:58;97220.13;;;18.52;65.82
70434;BME280;57876;47.792;12.960;2023-09-07T08:39:31;97226.09;;;18.54;65.59
70434;BME280;57876;47.792;12.960;2023-09-07T08:41:58;97209.50;;;18.50;65.71
70434;BME280;57876;47.792;12.960;2023-09-07T08:44:24;97210.13;;;18.56;65.81
70434;BME280;57876;47.792;12.960;2023-09-07T08:46:50;97203.34;;;18.53;65.64
70434;BME280;57876;47.792;12.960;2023-09-07T08:49:17;97201.75;;;18.52;65.60
70434;BME280;57876;47.792;12.960;2023-09-07T08:51:47;97200.97;;;18.52;65.61
70434;BME280;57876;47.792;12.960;2023-09-07T08:54:35;97208.38;;;18.51;65.64
70434;BME280;57876;47.792;12.960;2023-09-07T08:57:07;97200.63;;;18.53;65.76
70434;BME280;57876;47.792;12.960;2023-09-07T08:59:31;97200.63;;;18.53;65.80
70434;BME280;57876;47.792;12.960;2023-09-07T09:01:56;97202.06;;;18.51;65.75
70434;BME280;57876;47.792;12.960;2023-09-07T09:04:22;97205.31;;;18.53;65.77
70434;BME280;57876;47.792;12.960;2023-09-07T09:06:47;97198.22;;;18.52;65.79
70434;BME280;57876;47.792;12.960;2023-09-07T09:09:28;97191.94;;;18.51;65.58
70434;BME280;57876;47.792;12.960;2023-09-07T09:11:52;97197.88;;;18.53;65.69
70434;BME280;57876;47.792;12.960;2023-09-07T09:14:30;97197.44;;;18.51;65.78
70434;BME280;57876;47.792;12.960;2023-09-07T09:16:56;97206.09;;;18.53;65.62
70434;BME280;57876;47.792;12.960;2023-09-07T09:19:30;97201.75;;;18.52;65.68
70434;BME280;57876;47.792;12.960;2023-09-07T09:21:59;97208.03;;;18.53;65.61
70434;BME280;57876;47.792;12.960;2023-09-07T09:24:31;97199.34;;;18.51;65.70
70434;BME280;57876;47.792;12.960;2023-09-07T09:27:02;97205.78;;;18.55;65.73
70434;BME280;57876;47.792;12.960;2023-09-07T09:29:28;97199.81;;;18.53;65.51
70434;BME280;57876;47.792;12.960;2023-09-07T09:31:52;97204.50;;;18.52;65.69
70434;BME280;57876;47.792;12.960;2023-09-07T09:34:18;97196.28;;;18.52;65.59
70434;BME280;57876;47.792;12.960;2023-09-07T09:37:12;97191.59;;;18.53;65.98
70434;BME280;57876;47.792;12.960;2023-09-07T09:39:30;97200.63;;;18.53;65.68
70434;BME280;57876;47.792;12.960;2023-09-07T09:42:00;97190.31;;;18.50;65.66
70434;BME280;57876;47.792;12.960;2023-09-07T09:47:21;97190.81;;;18.52;65.64
70434;BME280;57876;47.792;12.960;2023-09-07T09:49:46;97185.66;;;18.51;65.65
70434;BME280;57876;47.792;12.960;2023-09-07T09:52:13;97188.38;;;18.51;65.49
70434;BME280;57876;47.792;12.960;2023-09-07T09:54:40;97186.13;;;18.53;65.70
70434;BME280;57876;47.792;12.960;2023-09-07T09:57:05;97192.41;;;18.53;65.72
70434;BME280;57876;47.792;12.960;2023-09-07T09:59:30;97189.66;;;18.53;65.66
70434;BME280;57876;47.792;12.960;2023-09-07T10:01:55;97178.25;;;18.51;65.69
70434;BME280;57876;47.792;12.960;2023-09-07T10:04:34;97177.91;;;18.53;65.56
70434;BME280;57876;47.792;12.960;2023-09-07T10:07:01;97175.50;;;18.51;65.60
70434;BME280;57876;47.792;12.960;2023-09-07T10:09:34;97180.66;;;18.53;65.71
70434;BME280;57876;47.792;12.960;2023-09-07T10:11:59;97178.72;;;18.53;65.87
70434;BME280;57876;47.792;12.960;2023-09-07T10:14:25;97184.66;;;18.55;65.52
70434;BME280;57876;47.792;12.960;2023-09-07T10:16:51;97174.06;;;18.54;65.51
70434;BME280;57876;47.792;12.960;2023-09-07T10:19:24;97180.34;;;18.54;65.57
70434;BME280;57876;47.792;12.960;2023-09-07T10:21:52;97171.63;;;18.52;65.66
70434;BME280;57876;47.792;12.960;2023-09-07T10:24:30;97174.06;;;18.54;65.58
70434;BME280;57876;47.792;12.960;2023-09-07T10:27:05;97175.97;;;18.53;65.54
70434;BME280;57876;47.792;12.960;2023-09-07T10:29:44;97176.81;;;18.54;65.61
70434;BME280;57876;47.792;12.960;2023-09-07T10:32:09;97180.34;;;18.54;65.83
70434;BME280;57876;47.792;12.960;2023-09-07T10:34:37;97171.63;;;18.52;65.79
70434;BME280;57876;47.792;12.960;2023-09-07T10:37:05;97164.69;;;18.55;65.65
70434;BME280;57876;47.792;12.960;2023-09-07T10:39:34;97168.25;;;18.55;65.39
70434;BME280;57876;47.792;12.960;2023-09-07T10:41:58;97173.22;;;18.53;65.63
70434;BME280;57876;47.792;12.960;2023-09-07T10:44:26;97157.94;;;18.52;65.42
70434;BME280;57876;47.792;12.960;2023-09-07T10:46:52;97164.69;;;18.55;65.77
70434;BME280;57876;47.792;12.960;2023-09-07T10:49:18;97168.25;;;18.55;65.77
70434;BME280;57876;47.792;12.960;2023-09-07T10:51:45;97155.19;;;18.52;65.77
70434;BME280;57876;47.792;12.960;2023-09-07T10:54:17;97152.78;;;18.51;65.62
70434;BME280;57876;47.792;12.960;2023-09-07T10:56:46;97154.06;;;18.53;65.46
70434;BME280;57876;47.792;12.960;2023-09-07T10:59:14;97159.88;;;18.52;65.52
70434;BME280;57876;47.792;12.960;2023-09-07T11:01:39;97153.59;;;18.51;65.70
70434;BME280;57876;47.792;12.960;2023-09-07T11:04:06;97147.78;;;18.53;65.47
70434;BME280;57876;47.792;12.960;2023-09-07T11:06:32;97158.41;;;18.54;65.59
70434;BME280;57876;47.792;12.960;2023-09-07T11:09:00;97155.34;;;18.56;65.64
70434;BME280;57876;47.792;12.960;2023-09-07T11:11:25;97153.75;;;18.55;65.53
70434;BME280;57876;47.792;12.960;2023-09-07T11:13:50;97142.66;;;18.51;65.72
70434;BME280;57876;47.792;12.960;2023-09-07T11:16:17;97145.03;;;18.53;65.53
70434;BME280;57876;47.792;12.960;2023-09-07T11:18:41;97154.53;;;18.55;65.64
70434;BME280;57876;47.792;12.960;2023-09-07T11:21:10;97148.56;;;18.53;65.63
70434;BME280;57876;47.792;12.960;2023-09-07T11:23:34;97143.44;;;18.52;65.37
70434;BME280;57876;47.792;12.960;2023-09-07T11:26:08;97148.25;;;18.55;65.77
70434;BME280;57876;47.792;12.960;2023-09-07T11:28:39;97148.56;;;18.53;65.55
70434;BME280;57876;47.792;12.960;2023-09-07T11:31:05;97140.69;;;18.52;65.68
70434;BME280;57876;47.792;12.960;2023-09-07T11:33:33;97145.03;;;18.53;65.70
70434;BME280;57876;47.792;12.960;2023-09-07T11:36:18;97143.44;;;18.52;65.61
70434;BME280;57876;47.792;12.960;2023-09-07T11:38:55;97140.34;;;18.53;65.43
70434;BME280;57876;47.792;12.960;2023-09-07T11:41:19;97137.16;;;18.51;65.55
70434;BME280;57876;47.792;12.960;2023-09-07T11:43:44;97145.03;;;18.53;65.56
70434;BME280;57876;47.792;12.960;2023-09-07T11:46:09;97145.84;;;18.53;65.56
70434;BME280;57876;47.792;12.960;2023-09-07T11:48:36;97144.72;;;18.54;65.52
70434;BME280;57876;47.792;12.960;2023-09-07T11:51:01;97142.66;;;18.51;65.66
70434;BME280;57876;47.792;12.960;2023-09-07T11:53:26;97140.34;;;18.53;65.64
70434;BME280;57876;47.792;12.960;2023-09-07T11:55:50;97133.28;;;18.52;65.62
70434;BME280;57876;47.792;12.960;2023-09-07T11:58:15;97148.25;;;18.55;65.71
70434;BME280;57876;47.792;12.960;2023-09-07T12:00:39;97147.47;;;18.54;65.68
70434;BME280;57876;47.792;12.960;2023-09-07T12:03:05;97136.81;;;18.53;65.59
70434;BME280;57876;47.792;12.960;2023-09-07T12:05:35;97145.53;;;18.55;65.73
70434;BME280;57876;47.792;12.960;2023-09-07T12:08:10;97133.28;;;18.52;65.69
70434;BME280;57876;47.792;12.960;2023-09-07T12:10:34;97145.53;;;18.55;65.69
70434;BME280;57876;47.792;12.960;2023-09-07T12:12:59;97134.22;;;18.56;65.58
70434;BME280;57876;47.792;12.960;2023-09-07T12:15:23;97136.50;;;18.54;65.43
70434;BME280;57876;47.792;12.960;2023-09-07T12:17:48;97126.34;;;18.55;65.56
70434;BME280;57876;47.792;12.960;2023-09-07T12:20:13;97123.94;;;18.53;65.76
70434;BME280;57876;47.792;12.960;2023-09-07T12:22:38;97121.53;;;18.52;65.65
70434;BME280;57876;47.792;12.960;2023-09-07T12:25:06;97112.66;;;18.55;65.60
70434;BME280;57876;47.792;12.960;2023-09-07T12:27:31;97118.94;;;18.55;65.42
70434;BME280;57876;47.792;12.960;2023-09-07T12:30:02;97114.59;;;18.54;65.70
70434;BME280;57876;47.792;12.960;2023-09-07T12:32:53;97107.50;;;18.53;65.64
70434;BME280;57876;47.792;12.960;2023-09-07T12:35:18;97107.50;;;18.53;65.62
70434;BME280;57876;47.792;12.960;2023-09-07T12:37:46;97107.50;;;18.53;65.80
70434;BME280;57876;47.792;12.960;2023-09-07T12:40:11;97102.00;;;18.53;65.62
70434;BME280;57876;47.792;12.960;2023-09-07T12:42:38;97107.19;;;18.55;65.67
70434;BME280;57876;47.792;12.960;2023-09-07T12:45:04;97107.19;;;18.55;65.78
70434;BME280;57876;47.792;12.960;2023-09-07T12:47:29;97107.97;;;18.55;65.57
70434;BME280;57876;47.792;12.960;2023-09-07T12:49:53;97106.03;;;18.56;65.64
70434;BME280;57876;47.792;12.960;2023-09-07T12:52:17;97102.50;;;18.55;65.44
70434;BME280;57876;47.792;12.960;2023-09-07T12:54:42;97094.28;;;18.55;65.70
70434;BME280;57876;47.792;12.960;2023-09-07T12:57:07;97093.00;;;18.53;65.47
70434;BME280;57876;47.792;12.960;2023-09-07T12:59:31;97091.06;;;18.53;65.68
70434;BME280;57876;47.792;12.960;2023-09-07T13:01:56;97085.13;;;18.51;65.56
70434;BME280;57876;47.792;12.960;2023-09-07T13:04:20;97094.28;;;18.55;65.49
70434;BME280;57876;47.792;12.960;2023-09-07T13:06:45;97087.19;;;18.54;65.86
70434;BME280;57876;47.792;12.960;2023-09-07T13:09:09;97090.75;;;18.55;65.40
70434;BME280;57876;47.792;12.960;2023-09-07T13:11:35;97086.84;;;18.56;65.52
70434;BME280;57876;47.792;12.960;2023-09-07T13:14:00;97087.19;;;18.54;65.71